FMSD

Tôlanaro Airport

Tôlanaro, Comoros
METAR FMSD 210400Z 06010KT 9999 VCSH FEW016 BKN033 18/16 Q1027
Observed Flight Rules
Jul-21 @ 04:00 UTC (23 minutes ago) Visual Flight Rules
Wind Visibility Clouds
60° at 10 knots 10,000+ meters
  • Few at 1,600' AGL
  • Broken at 3,300' AGL
Temperatures Readings
Current 18°C / 64°F
Dewpoint 16°C / 61°F
Humidity 88%
Altimeter 30.32" Hg
Pressure 1027 hPa
Elevation 9
METAR FMSD 210400Z 06010KT 9999 VCSH FEW016 BKN033 18/16 Q1027
Observed Flight Rules
Jul-21 @ 04:00 UTC
(23 minutes ago)
VFR
Wind Visibility
60° at 10 knots 10,000+ meters
Clouds
  • Few at 1,600' AGL
  • Broken at 3,300' AGL
Temperature Dewpoint
18°C / 64°F 16°C / 61°F
Humidity Altimeter Pressure
88% 30.32" Hg 1027 hPa